Time;durP1;ratioP1;P1;durP2;ratioP2;P2;SDS_P1;SDS_P2;PMS_P1;PMS_P2;Temp;Humidity;BMP_temperature;BMP_pressure;BME280_temperature;BME280_humidity;BME280_pressure;Samples;Min_cycle;Max_cycle;Signal;HPM_P1;HPM_P2
2023/11/02 00:00:34;;;;;;;9.38;1.35;;;;;;;9.37;100.00;99011.41;5012721;28;20697;-70
2023/11/02 00:03:00;;;;;;;2.42;0.77;;;;;;;9.33;100.00;99005.81;5003169;28;20068;-70
2023/11/02 00:06:09;;;;;;;4.38;1.13;;;;;;;9.29;100.00;99009.78;5004477;28;20037;-70
2023/11/02 00:08:35;;;;;;;11.48;1.30;;;;;;;9.29;100.00;99009.78;4948217;28;20048;-70
2023/11/02 00:11:42;;;;;;;4.15;1.10;;;;;;;9.25;100.00;99009.38;4937786;28;20102;-70
2023/11/02 00:14:08;;;;;;;8.10;1.65;;;;;;;9.20;100.00;98992.81;4987194;28;20051;-70
2023/11/02 00:16:34;;;;;;;5.43;1.15;;;;;;;9.24;100.00;98987.06;4982880;28;20400;-71
2023/11/02 00:18:59;;;;;;;4.88;1.00;;;;;;;9.24;100.00;98987.06;5018745;28;20125;-70
2023/11/02 00:21:27;;;;;;;6.57;1.40;;;;;;;9.27;100.00;98981.53;4984898;28;20488;-70
2023/11/02 00:23:53;;;;;;;3.42;1.00;;;;;;;9.24;100.00;98960.41;5002281;28;20033;-70
2023/11/02 00:26:21;;;;;;;5.47;1.23;;;;;;;9.28;100.00;98953.84;5014323;28;20103;-70
2023/11/02 00:28:47;;;;;;;10.90;1.40;;;;;;;9.24;100.00;98950.84;5018570;28;20120;-70
2023/11/02 00:31:14;;;;;;;5.68;1.52;;;;;;;9.23;100.00;98936.34;4987549;28;20510;-70
2023/11/02 00:33:43;;;;;;;8.32;1.60;;;;;;;9.29;100.00;98917.47;4987894;28;20554;-70
2023/11/02 00:36:10;;;;;;;6.97;1.50;;;;;;;9.37;100.00;98902.78;4998032;28;20076;-70
2023/11/02 00:38:36;;;;;;;5.35;1.58;;;;;;;9.40;100.00;98907.53;5004648;28;20036;-70
2023/11/02 00:41:02;;;;;;;4.53;1.55;;;;;;;9.33;100.00;98894.59;4999066;28;20041;-70
2023/11/02 00:43:28;;;;;;;5.03;1.90;;;;;;;9.34;100.00;98891.81;5004240;28;20116;-70
2023/11/02 00:45:55;;;;;;;9.63;1.73;;;;;;;9.34;100.00;98885.84;4986042;28;20523;-70
2023/11/02 00:48:27;;;;;;;7.25;1.30;;;;;;;9.28;100.00;98873.69;5018670;28;20108;-70
2023/11/02 00:51:23;;;;;;;6.82;1.30;;;;;;;9.34;100.00;98876.31;5019553;28;20561;-71
2023/11/02 00:53:58;;;;;;;8.98;2.10;;;;;;;9.27;100.00;98859.97;5003106;28;20032;-70
2023/11/02 00:56:29;;;;;;;5.75;1.08;;;;;;;9.32;100.00;98849.03;5006428;28;20029;-70
2023/11/02 00:58:56;;;;;;;16.20;1.83;;;;;;;9.37;100.00;98843.28;5008318;28;20472;-71
2023/11/02 01:01:25;;;;;;;11.43;2.35;;;;;;;9.36;100.00;98837.28;5005375;28;20037;-70
2023/11/02 01:03:57;;;;;;;7.38;1.45;;;;;;;9.35;100.00;98828.72;5021631;28;20128;-70
2023/11/02 01:06:33;;;;;;;4.22;1.13;;;;;;;9.43;100.00;98814.81;5006707;28;20126;-71
2023/11/02 01:09:18;;;;;;;4.50;1.30;;;;;;;9.44;100.00;98807.88;5005557;28;20495;-70
2023/11/02 01:11:44;;;;;;;4.32;1.20;;;;;;;9.33;100.00;98804.84;5004862;28;20034;-70
2023/11/02 01:14:48;;;;;;;3.95;1.60;;;;;;;9.34;100.00;98800.47;5007011;28;20026;-72
2023/11/02 01:17:37;;;;;;;3.33;1.20;;;;;;;9.38;100.00;98786.19;5004511;28;20053;-71
2023/11/02 01:20:32;;;;;;;5.65;1.67;;;;;;;9.50;100.00;98783.81;5008410;28;20102;-70
2023/11/02 01:23:06;;;;;;;4.32;1.13;;;;;;;9.57;100.00;98769.06;4989624;28;20124;-70
2023/11/02 01:25:41;;;;;;;3.67;0.90;;;;;;;9.63;100.00;98764.91;5008699;28;20030;-71
2023/11/02 01:28:07;;;;;;;5.38;0.90;;;;;;;9.68;100.00;98762.50;5008261;28;20030;-70
2023/11/02 01:31:01;;;;;;;7.30;1.13;;;;;;;9.59;100.00;98758.50;4991738;28;20044;-70
2023/11/02 01:33:33;;;;;;;5.00;1.08;;;;;;;9.73;100.00;98752.34;5008610;28;20034;-71
2023/11/02 01:35:59;;;;;;;2.17;1.00;;;;;;;9.65;100.00;98747.38;5008024;28;20033;-70
2023/11/02 01:38:27;;;;;;;5.25;1.00;;;;;;;9.69;100.00;98749.34;5010879;28;20132;-70
2023/11/02 01:41:03;;;;;;;6.15;1.17;;;;;;;9.81;100.00;98746.16;5011407;28;20064;-70
2023/11/02 01:43:41;;;;;;;6.75;1.23;;;;;;;9.88;100.00;98741.78;5010554;28;20110;-70
2023/11/02 01:46:16;;;;;;;4.30;1.58;;;;;;;9.97;100.00;98725.03;4993820;28;20454;-70
2023/11/02 01:48:49;;;;;;;8.40;1.50;;;;;;;9.98;100.00;98724.03;5006945;28;20065;-70
2023/11/02 01:51:25;;;;;;;4.35;1.30;;;;;;;10.01;100.00;98715.09;5021969;28;20065;-72
2023/11/02 01:54:16;;;;;;;2.95;0.85;;;;;;;10.14;100.00;98705.47;5004368;28;20030;-71
2023/11/02 01:57:03;;;;;;;3.80;0.98;;;;;;;10.12;100.00;98702.28;4998661;28;20764;-70
2023/11/02 02:00:04;;;;;;;5.97;1.63;;;;;;;10.15;100.00;98695.91;5016273;28;20036;-71
2023/11/02 02:02:50;;;;;;;3.33;1.02;;;;;;;10.17;100.00;98673.22;5001555;28;20037;-70
2023/11/02 02:05:30;;;;;;;4.10;0.90;;;;;;;10.17;100.00;98642.13;4998045;28;20042;-70
2023/11/02 02:08:40;;;;;;;5.57;1.42;;;;;;;10.16;100.00;98627.59;4992776;28;20065;-72
2023/11/02 02:11:42;;;;;;;5.93;0.95;;;;;;;10.19;100.00;98613.41;4988178;28;20052;-70
2023/11/02 02:14:32;;;;;;;5.97;1.17;;;;;;;10.17;100.00;98616.22;5004380;28;20749;-70
2023/11/02 02:17:09;;;;;;;6.40;1.10;;;;;;;10.19;100.00;98596.09;4982333;28;20082;-71
2023/11/02 02:20:06;;;;;;;3.33;1.17;;;;;;;10.08;100.00;98589.78;5000791;28;20879;-70
2023/11/02 02:22:48;;;;;;;4.20;1.40;;;;;;;10.10;100.00;98568.84;5000187;28;20389;-70
2023/11/02 02:25:25;;;;;;;11.48;1.70;;;;;;;10.02;100.00;98558.72;5008158;28;20046;-71
2023/11/02 02:28:17;;;;;;;6.80;1.15;;;;;;;10.14;100.00;98551.91;5012654;28;20033;-71
2023/11/02 02:31:01;;;;;;;6.80;1.13;;;;;;;10.13;100.00;98556.28;5004022;28;20068;-70
2023/11/02 02:34:04;;;;;;;5.15;0.77;;;;;;;10.10;100.00;98545.53;4989061;28;20038;-71
2023/11/02 02:36:57;;;;;;;3.73;1.00;;;;;;;10.10;100.00;98538.56;5003649;28;20048;-70
2023/11/02 02:39:25;;;;;;;5.30;1.17;;;;;;;10.05;100.00;98516.88;5005720;28;20038;-70
2023/11/02 02:42:00;;;;;;;4.22;1.23;;;;;;;10.13;100.00;98514.84;5001714;28;20117;-69
2023/11/02 02:44:31;;;;;;;6.97;1.10;;;;;;;10.15;100.00;98488.72;5002867;28;20041;-71
2023/11/02 02:46:59;;;;;;;6.00;1.00;;;;;;;10.12;100.00;98477.00;4987100;28;20116;-70
2023/11/02 02:49:29;;;;;;;7.70;1.05;;;;;;;10.15;100.00;98462.81;5005294;28;20167;-69
2023/11/02 02:51:57;;;;;;;6.22;1.10;;;;;;;10.01;100.00;98454.38;5005703;28;20404;-70
2023/11/02 02:54:24;;;;;;;6.43;0.82;;;;;;;10.06;100.00;98466.69;5006583;28;20025;-70
2023/11/02 02:56:56;;;;;;;3.03;0.90;;;;;;;10.15;100.00;98462.81;5004347;28;20045;-70
2023/11/02 02:59:24;;;;;;;14.30;2.75;;;;;;;10.20;100.00;98472.56;5001591;28;20034;-70
2023/11/02 03:01:56;;;;;;;6.70;1.10;;;;;;;10.21;100.00;98428.34;4987875;28;20056;-70
2023/11/02 03:04:24;;;;;;;5.47;1.00;;;;;;;10.25;100.00;98413.19;4983339;28;20060;-70
2023/11/02 03:06:54;;;;;;;8.05;0.90;;;;;;;10.30;99.65;98408.13;5017961;28;20046;-70
2023/11/02 03:09:26;;;;;;;5.90;0.63;;;;;;;10.27;100.00;98396.41;5001860;28;20037;-70
2023/11/02 03:11:59;;;;;;;7.70;0.98;;;;;;;10.34;99.70;98383.44;5019335;28;20030;-69
2023/11/02 03:14:25;;;;;;;4.80;0.90;;;;;;;10.30;99.77;98375.31;5000671;28;20076;-69
2023/11/02 03:16:52;;;;;;;7.30;0.90;;;;;;;10.25;99.96;98380.28;4993050;28;20121;-70
2023/11/02 03:19:46;;;;;;;12.23;1.42;;;;;;;10.27;99.89;98375.69;5001241;28;20068;-70
2023/11/02 03:22:22;;;;;;;10.38;1.45;;;;;;;10.37;98.63;98344.16;5001975;28;20046;-70
2023/11/02 03:25:10;;;;;;;5.35;1.00;;;;;;;10.37;98.86;98328.59;5000223;28;20598;-71
2023/11/02 03:28:01;;;;;;;3.30;0.88;;;;;;;10.43;98.43;98314.00;4998757;28;20117;-70
2023/11/02 03:30:42;;;;;;;5.65;1.00;;;;;;;10.42;98.53;98296.88;4999802;28;20042;-70
2023/11/02 03:33:13;;;;;;;2.80;0.73;;;;;;;10.46;98.51;98291.03;5003003;28;20026;-71
2023/11/02 03:35:59;;;;;;;4.18;0.88;;;;;;;10.42;99.25;98269.16;5001386;28;20052;-70
2023/11/02 03:39:01;;;;;;;5.85;1.08;;;;;;;10.41;99.90;98275.34;5022142;28;20530;-73
2023/11/02 03:41:52;;;;;;;3.00;1.13;;;;;;;10.46;98.90;98254.00;4984487;28;20045;-69
2023/11/02 03:44:34;;;;;;;8.15;1.15;;;;;;;10.43;99.21;98224.09;4981238;28;20061;-70
2023/11/02 03:47:18;;;;;;;5.68;1.27;;;;;;;10.40;99.74;98218.59;5001814;28;20046;-70
2023/11/02 03:50:10;;;;;;;8.50;1.40;;;;;;;10.42;99.79;98206.22;5002242;28;20030;-70
2023/11/02 03:53:05;;;;;;;6.18;1.55;;;;;;;10.36;99.48;98194.13;5002047;28;20042;-70
2023/11/02 03:56:10;;;;;;;7.53;1.05;;;;;;;10.41;99.70;98192.44;5004254;28;20493;-71
2023/11/02 03:59:10;;;;;;;5.78;1.20;;;;;;;10.45;99.95;98190.22;4953575;28;20141;-69
2023/11/02 04:02:03;;;;;;;8.18;1.10;;;;;;;10.43;99.23;98193.03;4999761;28;20034;-69
2023/11/02 04:04:47;;;;;;;8.88;1.17;;;;;;;10.40;99.22;98169.38;5001511;28;20053;-71
2023/11/02 04:07:28;;;;;;;8.13;1.33;;;;;;;10.38;99.14;98158.41;5000626;28;20523;-71
2023/11/02 04:10:04;;;;;;;5.13;0.95;;;;;;;10.45;98.28;98154.75;5001523;28;20088;-70
2023/11/02 04:12:51;;;;;;;3.95;1.20;;;;;;;10.43;98.44;98133.44;5003975;28;20139;-69
2023/11/02 04:15:16;;;;;;;10.93;2.33;;;;;;;10.42;97.86;98107.78;4996731;28;20056;-70
2023/11/02 04:17:42;;;;;;;6.10;1.20;;;;;;;10.37;98.60;98087.69;4988787;28;20427;-70
2023/11/02 04:20:08;;;;;;;6.53;1.45;;;;;;;10.44;97.06;98048.75;5003910;28;20069;-70
2023/11/02 04:22:34;;;;;;;3.55;1.17;;;;;;;10.49;96.36;98028.13;5001508;28;20035;-69
2023/11/02 04:25:00;;;;;;;4.18;1.30;;;;;;;10.45;96.01;98012.28;5000685;28;20111;-71
2023/11/02 04:27:25;;;;;;;11.80;1.40;;;;;;;10.47;95.47;97923.94;5002461;28;20500;-70
2023/11/02 04:29:51;;;;;;;6.07;1.05;;;;;;;10.47;95.47;97765.91;4996410;28;20065;-68
2023/11/02 04:32:16;;;;;;;7.85;1.48;;;;;;;10.42;95.73;97755.47;5005308;28;20068;-69
2023/11/02 04:34:42;;;;;;;2.42;1.02;;;;;;;10.39;95.45;97810.31;5003187;28;20057;-69
2023/11/02 04:37:15;;;;;;;5.22;0.88;;;;;;;10.46;95.58;97850.63;5000689;28;20401;-69
2023/11/02 04:39:42;;;;;;;5.80;1.55;;;;;;;10.43;95.33;97820.00;5006548;28;20580;-71
2023/11/02 04:42:08;;;;;;;7.10;0.95;;;;;;;10.50;94.37;97827.66;5005768;28;20397;-70
2023/11/02 04:44:33;;;;;;;7.80;1.25;;;;;;;10.53;93.95;97923.06;5005924;28;20045;-69
2023/11/02 04:46:59;;;;;;;4.43;1.02;;;;;;;10.56;93.38;97867.41;5002379;28;20045;-70
2023/11/02 04:49:25;;;;;;;5.55;1.00;;;;;;;10.62;92.37;97856.13;5004756;28;20038;-69
2023/11/02 04:51:59;;;;;;;5.68;1.50;;;;;;;10.59;92.29;97857.38;5004752;28;20484;-69
2023/11/02 04:54:26;;;;;;;5.28;0.90;;;;;;;10.63;91.63;97840.38;5004592;28;20045;-68
2023/11/02 04:56:52;;;;;;;4.63;0.90;;;;;;;10.65;91.75;97843.50;5010918;28;20084;-70
2023/11/02 04:59:20;;;;;;;4.82;1.00;;;;;;;10.64;91.55;97808.25;5008938;28;20492;-69
2023/11/02 05:01:48;;;;;;;5.63;1.52;;;;;;;10.66;91.30;97784.69;5005718;28;20038;-69
2023/11/02 05:04:17;;;;;;;5.97;0.90;;;;;;;10.64;91.58;97778.94;5007453;28;20162;-69
2023/11/02 05:06:42;;;;;;;4.25;0.82;;;;;;;10.64;91.39;97768.59;5007356;28;20041;-69
2023/11/02 05:09:08;;;;;;;4.85;0.80;;;;;;;10.70;90.75;97778.84;5006887;28;20033;-72
2023/11/02 05:11:34;;;;;;;10.35;1.00;;;;;;;10.66;91.12;97744.03;5006490;28;20038;-70
2023/11/02 05:13:59;;;;;;;4.47;0.75;;;;;;;10.65;90.72;97732.09;5007854;28;20029;-70
2023/11/02 05:16:25;;;;;;;7.55;1.10;;;;;;;10.61;91.32;97764.66;4991405;28;20497;-70
2023/11/02 05:18:50;;;;;;;6.85;0.90;;;;;;;10.65;91.76;97765.78;5006136;28;20117;-70
2023/11/02 05:21:19;;;;;;;2.78;0.80;;;;;;;10.67;91.19;97753.38;5008277;28;20073;-71
2023/11/02 05:23:44;;;;;;;3.22;0.70;;;;;;;10.61;91.46;97749.13;5008480;28;20105;-70
2023/11/02 05:26:10;;;;;;;5.15;1.15;;;;;;;10.61;91.66;97725.78;5006873;28;20038;-71
2023/11/02 05:28:35;;;;;;;8.98;1.08;;;;;;;10.62;91.37;97718.81;5011725;28;21189;-70
2023/11/02 05:31:01;;;;;;;10.27;0.90;;;;;;;10.57;91.63;97703.97;4992662;28;20413;-69
2023/11/02 05:33:26;;;;;;;3.40;0.90;;;;;;;10.65;91.52;97711.34;5005979;28;20388;-68
2023/11/02 05:35:52;;;;;;;6.28;0.93;;;;;;;10.62;92.01;97714.41;5009358;28;20400;-69
2023/11/02 05:38:20;;;;;;;3.08;0.63;;;;;;;10.62;92.23;97706.63;5006725;28;20034;-69
2023/11/02 05:40:45;;;;;;;5.05;1.33;;;;;;;10.68;92.17;97697.94;5001725;28;20026;-70
2023/11/02 05:43:11;;;;;;;5.05;0.88;;;;;;;10.69;91.59;97681.38;5007142;28;20109;-69
2023/11/02 05:45:37;;;;;;;1.75;0.70;;;;;;;10.69;91.52;97670.22;5006378;28;20088;-69
2023/11/02 05:48:03;;;;;;;7.75;1.15;;;;;;;10.68;91.62;97692.75;4989266;28;20431;-68
2023/11/02 05:50:31;;;;;;;4.85;0.90;;;;;;;10.68;91.94;97715.28;5007432;28;20038;-68
2023/11/02 05:52:57;;;;;;;2.10;0.82;;;;;;;10.69;92.03;97735.78;5007086;28;20026;-68
2023/11/02 05:55:23;;;;;;;5.65;0.85;;;;;;;10.72;92.08;97744.91;5005723;28;20038;-68
2023/11/02 05:57:49;;;;;;;8.45;1.00;;;;;;;10.67;92.83;97719.69;5022730;28;20034;-68
2023/11/02 06:00:17;;;;;;;3.38;0.82;;;;;;;10.78;92.20;97723.25;5004783;28;20523;-69
2023/11/02 06:02:43;;;;;;;3.38;0.82;;;;;;;10.94;91.32;97732.06;5018495;28;20034;-69
2023/11/02 06:05:09;;;;;;;1.98;0.98;;;;;;;10.97;91.78;97751.59;5002775;28;20041;-68
2023/11/02 06:07:36;;;;;;;3.97;0.75;;;;;;;11.02;91.20;97741.28;5018714;28;20041;-68
2023/11/02 06:10:04;;;;;;;4.78;0.77;;;;;;;10.98;91.64;97717.66;5005524;28;20049;-69
2023/11/02 06:12:30;;;;;;;4.55;1.58;;;;;;;11.09;91.45;97708.22;5012085;28;20369;-69
2023/11/02 06:14:56;;;;;;;5.03;1.33;;;;;;;11.08;91.45;97725.59;4992741;28;20026;-68
2023/11/02 06:17:22;;;;;;;7.35;1.17;;;;;;;11.07;91.34;97744.75;5004215;28;20029;-69
2023/11/02 06:19:48;;;;;;;2.45;0.60;;;;;;;11.10;91.90;97746.13;5003836;28;20392;-70
2023/11/02 06:22:13;;;;;;;3.40;1.30;;;;;;;11.09;92.12;97747.94;5005401;28;20029;-69
2023/11/02 06:24:43;;;;;;;4.03;0.70;;;;;;;11.21;91.38;97740.06;5007372;28;20042;-69
2023/11/02 06:27:12;;;;;;;3.70;0.80;;;;;;;11.20;91.75;97743.69;5005386;28;20042;-69
2023/11/02 06:29:38;;;;;;;3.58;0.90;;;;;;;11.15;92.41;97758.38;5004734;28;20041;-68
2023/11/02 06:32:04;;;;;;;4.90;0.80;;;;;;;11.14;92.64;97760.19;4999637;28;20452;-68
2023/11/02 06:34:34;;;;;;;5.22;0.75;;;;;;;11.09;93.24;97766.06;5004463;28;20067;-69
2023/11/02 06:37:04;;;;;;;2.63;0.82;;;;;;;11.17;93.26;97762.31;5025333;28;20037;-68
2023/11/02 06:39:29;;;;;;;4.10;0.77;;;;;;;11.16;94.05;97749.56;5025809;28;20029;-69
2023/11/02 06:41:55;;;;;;;2.90;1.10;;;;;;;11.10;95.06;97756.47;4992584;28;20644;-70
2023/11/02 06:44:20;;;;;;;4.50;0.82;;;;;;;11.14;95.06;97738.66;5026488;28;20036;-68
2023/11/02 06:46:47;;;;;;;3.30;0.73;;;;;;;11.16;95.18;97746.97;5004444;28;20103;-68
2023/11/02 06:49:12;;;;;;;3.25;0.68;;;;;;;11.21;94.57;97741.88;5005162;28;20121;-70
2023/11/02 06:51:38;;;;;;;5.80;0.70;;;;;;;11.16;95.52;97732.19;5024667;28;20112;-69
2023/11/02 06:54:04;;;;;;;2.67;0.77;;;;;;;11.13;95.01;97718.91;5026293;28;20087;-69
2023/11/02 06:56:30;;;;;;;2.13;0.60;;;;;;;11.16;96.00;97702.91;5001287;28;20044;-69
2023/11/02 06:58:55;;;;;;;5.63;0.80;;;;;;;11.18;95.44;97713.81;5009725;28;20462;-68
2023/11/02 07:01:27;;;;;;;4.10;0.70;;;;;;;11.17;95.84;97710.44;5022677;28;20064;-69
2023/11/02 07:03:53;;;;;;;6.38;0.80;;;;;;;11.26;95.62;97708.22;5025695;28;20033;-69
2023/11/02 07:06:19;;;;;;;3.85;0.60;;;;;;;11.26;95.86;97687.50;4990450;28;20124;-69
2023/11/02 07:08:44;;;;;;;0.57;0.40;;;;;;;11.37;96.53;97689.22;5003373;28;20136;-69
2023/11/02 07:11:13;;;;;;;4.07;0.45;;;;;;;11.33;97.35;97671.78;5004595;28;20037;-69
2023/11/02 07:13:38;;;;;;;5.32;0.77;;;;;;;11.35;97.82;97654.94;4993799;28;20127;-69
2023/11/02 07:16:04;;;;;;;5.72;0.70;;;;;;;11.35;97.90;97667.91;5011284;28;20050;-69
2023/11/02 07:18:30;;;;;;;2.75;1.38;;;;;;;11.28;98.78;97660.31;5025293;28;20390;-69
2023/11/02 07:20:56;;;;;;;1.75;0.50;;;;;;;11.42;98.14;97660.75;5021054;28;20061;-68
2023/11/02 07:23:22;;;;;;;3.85;0.70;;;;;;;11.43;97.99;97657.16;5004707;28;20516;-68
2023/11/02 07:25:47;;;;;;;1.80;0.50;;;;;;;11.46;98.33;97655.88;5018921;28;20045;-68
2023/11/02 07:28:13;;;;;;;3.30;0.70;;;;;;;11.58;97.50;97643.59;4993360;28;20048;-68
2023/11/02 07:30:38;;;;;;;12.07;0.60;;;;;;;11.53;97.54;97633.16;5008843;28;20034;-69
2023/11/02 07:33:04;;;;;;;3.75;0.47;;;;;;;11.63;96.76;97620.31;5005789;28;20447;-69
2023/11/02 07:35:31;;;;;;;2.75;0.50;;;;;;;11.65;96.12;97610.47;5020901;28;20099;-69
2023/11/02 07:37:57;;;;;;;2.25;0.43;;;;;;;11.72;96.18;97602.53;5004382;28;20026;-69
2023/11/02 07:40:22;;;;;;;3.08;0.75;;;;;;;11.69;96.26;97619.34;5017713;28;20052;-68
2023/11/02 07:42:48;;;;;;;0.68;0.40;;;;;;;11.79;95.83;97603.13;5018387;28;20708;-68
2023/11/02 07:45:13;;;;;;;2.83;0.80;;;;;;;11.78;95.27;97606.75;5003177;28;20129;-68
2023/11/02 07:47:39;;;;;;;4.25;0.40;;;;;;;11.80;95.44;97604.69;4988013;28;20619;-68
2023/11/02 07:50:05;;;;;;;2.90;0.70;;;;;;;11.74;95.94;97599.69;4992697;28;20531;-69
2023/11/02 07:52:31;;;;;;;1.98;0.70;;;;;;;11.68;96.03;97620.38;5003918;28;20033;-69
2023/11/02 07:54:59;;;;;;;10.18;0.95;;;;;;;11.61;96.63;97611.97;4994739;28;20026;-68
2023/11/02 07:57:27;;;;;;;2.33;0.80;;;;;;;11.55;96.59;97601.78;5023030;28;20045;-69
2023/11/02 07:59:53;;;;;;;4.78;0.65;;;;;;;11.40;97.41;97613.53;5023742;28;20025;-69
2023/11/02 08:02:19;;;;;;;2.03;0.47;;;;;;;11.37;97.67;97608.03;5007328;28;20087;-69
2023/11/02 08:04:45;;;;;;;3.42;0.60;;;;;;;11.34;97.79;97596.31;5006123;28;20499;-69
2023/11/02 08:07:11;;;;;;;3.47;0.63;;;;;;;11.43;97.67;97592.31;5008386;28;20029;-69
2023/11/02 08:09:37;;;;;;;1.65;0.68;;;;;;;11.43;97.92;97604.47;5009485;28;20033;-69
2023/11/02 08:12:04;;;;;;;2.13;0.70;;;;;;;11.39;97.79;97616.34;5024490;28;20029;-68
2023/11/02 08:14:29;;;;;;;4.50;0.70;;;;;;;11.39;98.39;97596.38;5024210;28;20064;-68
2023/11/02 08:16:58;;;;;;;2.95;0.70;;;;;;;11.38;98.77;97594.81;5020472;28;20571;-69
2023/11/02 08:19:23;;;;;;;3.70;0.90;;;;;;;11.34;99.83;97591.13;5021423;28;20443;-69
2023/11/02 08:21:49;;;;;;;1.88;0.70;;;;;;;11.27;99.97;97567.94;5005020;28;20034;-69
2023/11/02 08:24:15;;;;;;;5.78;0.90;;;;;;;11.31;100.00;97565.66;5004777;28;20042;-69
2023/11/02 08:26:40;;;;;;;2.67;0.70;;;;;;;11.35;99.71;97545.22;5003694;28;20056;-68
2023/11/02 08:29:06;;;;;;;3.63;1.05;;;;;;;11.43;100.00;97542.19;5005849;28;20041;-68
2023/11/02 08:31:32;;;;;;;3.00;0.63;;;;;;;11.72;98.85;97531.66;5003656;28;20091;-69
2023/11/02 08:33:58;;;;;;;4.18;0.95;;;;;;;11.71;97.74;97515.28;4984515;28;20083;-69
2023/11/02 08:36:24;;;;;;;1.63;0.70;;;;;;;11.61;98.15;97515.19;5005195;28;20037;-68
2023/11/02 08:38:50;;;;;;;3.55;0.93;;;;;;;11.59;98.99;97505.03;5005763;28;20037;-69
2023/11/02 08:41:31;;;;;;;2.25;0.88;;;;;;;11.82;97.83;97509.19;5023335;28;20030;-69
2023/11/02 08:43:58;;;;;;;7.40;0.95;;;;;;;12.08;96.94;97510.25;5006554;28;20037;-69
2023/11/02 08:46:28;;;;;;;3.30;0.77;;;;;;;12.50;93.89;97503.59;5004290;28;20128;-69
2023/11/02 08:48:53;;;;;;;2.80;0.80;;;;;;;12.69;92.15;97495.41;5024494;28;20037;-68
2023/11/02 08:51:21;;;;;;;4.22;1.17;;;;;;;12.91;91.29;97495.31;5020719;28;20040;-68
2023/11/02 08:53:46;;;;;;;1.70;0.70;;;;;;;13.01;90.33;97477.91;5023892;28;20056;-69
2023/11/02 08:56:12;;;;;;;5.32;0.70;;;;;;;12.82;90.78;97480.16;5003277;28;20495;-69
2023/11/02 08:58:42;;;;;;;4.13;0.90;;;;;;;12.51;92.25;97507.78;5022437;28;20087;-68
2023/11/02 09:01:10;;;;;;;4.82;0.77;;;;;;;12.27;93.41;97504.72;4990815;28;20095;-69
2023/11/02 09:03:39;;;;;;;6.07;1.02;;;;;;;12.20;94.08;97514.50;5023143;28;20037;-69
2023/11/02 09:06:08;;;;;;;5.85;0.85;;;;;;;12.22;94.30;97522.84;5002988;28;20078;-68
2023/11/02 09:08:35;;;;;;;2.45;0.77;;;;;;;12.20;95.04;97519.72;5001919;28;20530;-68
2023/11/02 09:11:01;;;;;;;2.28;0.60;;;;;;;12.25;93.77;97514.56;5004784;28;20128;-69
2023/11/02 09:13:26;;;;;;;2.72;0.60;;;;;;;12.40;92.51;97500.94;5005349;28;20117;-67
2023/11/02 09:15:53;;;;;;;4.82;0.70;;;;;;;12.49;93.24;97502.03;5004400;28;20032;-69
2023/11/02 09:18:19;;;;;;;3.75;1.77;;;;;;;12.54;91.25;97483.88;5005101;28;20033;-70
2023/11/02 09:20:45;;;;;;;3.17;0.70;;;;;;;12.59;91.23;97480.53;5026494;28;20084;-69
2023/11/02 09:23:10;;;;;;;4.07;0.50;;;;;;;12.58;90.57;97487.56;5024630;28;20503;-69
2023/11/02 09:25:37;;;;;;;6.22;0.82;;;;;;;12.56;90.76;97487.00;5025194;28;20052;-69
2023/11/02 09:28:03;;;;;;;3.15;0.63;;;;;;;12.71;89.01;97488.94;5010596;28;20031;-69
2023/11/02 09:30:28;;;;;;;9.18;1.00;;;;;;;12.73;88.50;97475.69;5026015;28;20044;-69
2023/11/02 09:32:54;;;;;;;5.32;0.70;;;;;;;12.79;87.65;97485.88;5013529;28;20025;-69
2023/11/02 09:35:19;;;;;;;2.63;0.68;;;;;;;12.82;87.16;97489.78;5005647;28;20136;-69
2023/11/02 09:37:45;;;;;;;7.07;1.20;;;;;;;12.87;86.90;97484.63;5008366;28;20515;-69
2023/11/02 09:40:11;;;;;;;8.50;1.00;;;;;;;12.98;86.62;97475.06;5006430;28;20033;-69
2023/11/02 09:42:36;;;;;;;5.38;0.63;;;;;;;12.96;84.73;97459.72;4995346;28;20056;-70
2023/11/02 09:45:08;;;;;;;4.97;0.80;;;;;;;13.00;83.97;97463.38;5006115;28;22247;-69
2023/11/02 09:47:34;;;;;;;7.30;0.98;;;;;;;13.00;83.06;97450.38;5026091;28;20046;-70
2023/11/02 09:49:59;;;;;;;3.08;1.23;;;;;;;13.11;81.91;97456.41;5023954;28;20044;-69
2023/11/02 09:52:25;;;;;;;4.63;0.70;;;;;;;13.23;79.93;97438.75;5010838;28;20473;-70
2023/11/02 09:54:50;;;;;;;6.38;0.90;;;;;;;13.29;80.11;97459.59;5008978;28;20133;-69
2023/11/02 09:57:17;;;;;;;4.15;0.63;;;;;;;13.38;77.54;97456.28;5023707;28;20036;-70
2023/11/02 09:59:44;;;;;;;11.63;1.00;;;;;;;13.29;77.43;97459.59;5024285;28;20052;-70
2023/11/02 10:02:13;;;;;;;8.23;1.60;;;;;;;13.34;76.78;97472.66;5009402;28;20614;-70
2023/11/02 10:04:39;;;;;;;10.07;1.67;;;;;;;13.28;76.78;97458.03;5023845;28;20037;-70
2023/11/02 10:07:08;;;;;;;6.72;1.08;;;;;;;13.38;74.93;97465.91;5023574;28;20095;-69
2023/11/02 10:09:34;;;;;;;9.93;1.08;;;;;;;13.38;73.68;97479.69;5006246;28;20065;-70
2023/11/02 10:12:03;;;;;;;3.67;0.90;;;;;;;13.38;74.13;97471.88;5023577;28;20045;-70
2023/11/02 10:14:29;;;;;;;7.72;0.98;;;;;;;13.34;72.47;97490.88;5009704;28;20034;-69
2023/11/02 10:17:05;;;;;;;5.97;0.90;;;;;;;13.48;71.88;97470.38;5022485;28;22453;-68
2023/11/02 10:19:31;;;;;;;8.48;1.20;;;;;;;13.54;71.32;97470.13;5004724;28;20534;-69
2023/11/02 10:21:57;;;;;;;9.10;1.17;;;;;;;13.55;71.38;97458.66;5010566;28;20046;-69
2023/11/02 10:24:33;;;;;;;16.42;1.13;;;;;;;13.56;70.55;97454.25;5006088;28;20038;-69
2023/11/02 10:26:59;;;;;;;10.70;1.17;;;;;;;13.68;69.28;97454.03;5015771;28;20033;-69
2023/11/02 10:29:28;;;;;;;3.53;0.60;;;;;;;13.72;69.53;97450.66;5022915;28;20068;-69
2023/11/02 10:31:56;;;;;;;10.10;1.95;;;;;;;13.80;69.43;97444.16;5001441;28;20497;-70
2023/11/02 10:34:23;;;;;;;4.50;1.48;;;;;;;13.78;69.22;97441.78;5023078;28;20067;-70
2023/11/02 10:36:50;;;;;;;7.28;0.98;;;;;;;13.86;69.21;97434.53;5023474;28;20037;-70
2023/11/02 10:39:20;;;;;;;8.57;1.73;;;;;;;13.91;68.73;97411.88;5008966;28;20061;-70
2023/11/02 10:42:04;;;;;;;8.05;1.20;;;;;;;13.91;67.21;97411.88;5007369;28;20044;-70
2023/11/02 10:44:33;;;;;;;12.52;2.70;;;;;;;13.87;66.98;97417.88;5010405;28;20128;-69
2023/11/02 10:47:12;;;;;;;12.45;1.60;;;;;;;13.79;67.26;97419.94;5007862;28;20404;-68
2023/11/02 10:49:37;;;;;;;9.77;1.45;;;;;;;13.78;66.89;97412.38;5004791;28;20115;-69
2023/11/02 10:52:08;;;;;;;12.48;1.50;;;;;;;13.94;67.25;97418.41;5008161;28;20073;-69
2023/11/02 10:54:46;;;;;;;8.20;1.30;;;;;;;14.03;66.94;97411.59;5001864;28;20055;-69
2023/11/02 10:57:17;;;;;;;10.90;1.65;;;;;;;14.17;66.34;97407.44;5022242;28;20405;-69
2023/11/02 10:59:43;;;;;;;5.13;1.00;;;;;;;14.29;65.89;97388.94;4986651;28;20079;-70
2023/11/02 11:02:15;;;;;;;11.82;1.63;;;;;;;14.34;63.28;97388.16;5020953;28;20427;-70
2023/11/02 11:04:42;;;;;;;13.90;1.60;;;;;;;14.44;62.43;97361.28;5004719;28;20040;-69
2023/11/02 11:07:11;;;;;;;17.58;1.38;;;;;;;14.46;62.37;97364.41;5002573;28;20033;-69
2023/11/02 11:09:38;;;;;;;17.45;1.73;;;;;;;14.55;61.41;97347.97;5008114;28;20379;-69
2023/11/02 11:12:07;;;;;;;10.63;1.30;;;;;;;14.52;62.36;97356.31;5020268;28;20037;-70
2023/11/02 11:14:35;;;;;;;9.73;1.60;;;;;;;14.55;61.21;97355.00;5006688;28;20034;-69
2023/11/02 11:17:01;;;;;;;19.67;1.60;;;;;;;14.53;59.71;97354.50;5021943;28;20030;-70
2023/11/02 11:19:31;;;;;;;17.33;1.92;;;;;;;14.52;59.85;97360.75;5007502;28;20664;-70
2023/11/02 11:22:00;;;;;;;14.98;1.63;;;;;;;14.59;59.88;97380.31;5002752;28;20048;-70
2023/11/02 11:24:33;;;;;;;13.13;2.75;;;;;;;14.57;60.18;97379.78;5005659;28;20040;-71
2023/11/02 11:27:02;;;;;;;16.40;2.20;;;;;;;14.58;58.41;97372.75;5021228;28;20626;-71
2023/11/02 11:29:37;;;;;;;17.02;1.90;;;;;;;14.72;56.58;97384.19;5007570;28;20030;-71
2023/11/02 11:32:04;;;;;;;17.38;2.63;;;;;;;14.66;56.76;97385.25;5020483;28;20038;-70
2023/11/02 11:35:02;;;;;;;15.13;1.58;;;;;;;14.48;57.00;97370.91;5004877;28;20366;-70
2023/11/02 11:37:34;;;;;;;10.23;1.30;;;;;;;14.51;57.09;97400.91;5003820;28;20486;-70
2023/11/02 11:40:06;;;;;;;14.27;1.15;;;;;;;14.45;57.03;97392.31;5002345;28;20030;-70
2023/11/02 11:42:50;;;;;;;11.05;1.70;;;;;;;14.47;57.48;97400.66;5024090;28;20036;-70
2023/11/02 11:45:32;;;;;;;11.73;1.17;;;;;;;14.44;57.16;97408.97;5019863;28;20048;-70
2023/11/02 11:48:10;;;;;;;8.88;1.52;;;;;;;14.45;56.17;97426.19;5002827;28;20040;-69
2023/11/02 11:50:37;;;;;;;7.78;1.02;;;;;;;14.35;57.76;97440.03;5018749;28;20120;-69